createdAt,value
2022-10-18T00:00:21.232Z,1027.05
2022-10-18T00:01:21.232Z,1027.05
2022-10-18T00:02:21.492Z,1027.08
2022-10-18T00:03:21.238Z,1027.08
2022-10-18T00:04:21.200Z,1027.05
2022-10-18T00:05:21.177Z,1027.07
2022-10-18T00:06:21.390Z,1027.07
2022-10-18T00:07:22.147Z,1027.05
2022-10-18T00:08:21.351Z,1027.07
2022-10-18T00:09:21.106Z,1027.06
2022-10-18T00:10:21.114Z,1027.16
2022-10-18T00:11:21.059Z,1027.09
2022-10-18T00:12:21.047Z,1027.17
2022-10-18T00:13:21.055Z,1027.15
2022-10-18T00:14:21.309Z,1027.17
2022-10-18T00:15:21.022Z,1027.16
2022-10-18T00:16:21.021Z,1027.14
2022-10-18T00:17:21.227Z,1027.12
2022-10-18T00:18:21.022Z,1027.13
2022-10-18T00:19:23.768Z,1027.10
2022-10-18T00:20:20.989Z,1027.14
2022-10-18T00:21:20.993Z,1027.14
2022-10-18T00:22:20.939Z,1027.12
2022-10-18T00:23:20.893Z,1027.23
2022-10-18T00:24:20.938Z,1027.17
2022-10-18T00:25:20.930Z,1027.14
2022-10-18T00:26:20.859Z,1027.08
2022-10-18T00:27:20.853Z,1027.11
2022-10-18T00:28:20.837Z,1027.14
2022-10-18T00:29:20.889Z,1027.17
2022-10-18T00:30:20.814Z,1027.15
2022-10-18T00:31:21.094Z,1027.11
2022-10-18T00:32:20.785Z,1027.11
2022-10-18T00:33:20.828Z,1027.13
2022-10-18T00:34:21.025Z,1027.11
2022-10-18T00:35:20.763Z,1027.10
2022-10-18T00:36:20.785Z,1027.05
2022-10-18T00:37:21.669Z,1027.06
2022-10-18T00:38:20.734Z,1027.02
2022-10-18T00:39:20.685Z,1027.03
2022-10-18T00:40:20.930Z,1027.00
2022-10-18T00:41:20.670Z,1027.02
2022-10-18T00:42:20.689Z,1026.96
2022-10-18T00:43:20.668Z,1026.96
2022-10-18T00:44:20.631Z,1026.98
2022-10-18T00:45:20.663Z,1026.97
2022-10-18T00:46:20.597Z,1026.97
2022-10-18T00:47:20.616Z,1026.96
2022-10-18T00:48:20.608Z,1026.95
2022-10-18T00:49:20.545Z,1026.96
2022-10-18T00:50:20.555Z,1026.92
2022-10-18T00:51:20.565Z,1026.93
2022-10-18T00:52:20.540Z,1026.90
2022-10-18T00:53:20.536Z,1026.90
2022-10-18T00:54:20.735Z,1026.89
2022-10-18T00:55:20.570Z,1026.91
2022-10-18T00:56:20.482Z,1026.87
2022-10-18T00:57:20.548Z,1026.88
2022-10-18T00:58:20.505Z,1026.86
2022-10-18T00:59:20.429Z,1026.87
2022-10-18T01:00:20.410Z,1026.86
2022-10-18T01:01:23.211Z,1026.79
2022-10-18T01:02:20.405Z,1026.76
2022-10-18T01:03:21.124Z,1026.75
2022-10-18T01:04:20.388Z,1026.79
2022-10-18T01:05:20.331Z,1026.75
2022-10-18T01:06:20.339Z,1026.76
2022-10-18T01:07:20.337Z,1026.76
2022-10-18T01:08:20.362Z,1026.70
2022-10-18T01:09:21.186Z,1026.62
2022-10-18T01:10:20.597Z,1026.59
2022-10-18T01:11:20.260Z,1026.82
2022-10-18T01:12:20.264Z,1027.48
2022-10-18T01:13:23.397Z,1027.30
2022-10-18T01:14:20.239Z,1027.23
2022-10-18T01:15:20.231Z,1027.34
2022-10-18T01:16:20.241Z,1027.25
2022-10-18T01:17:20.207Z,1027.32
2022-10-18T01:18:20.172Z,1027.34
2022-10-18T01:19:20.239Z,1027.37
2022-10-18T01:20:20.230Z,1027.40
2022-10-18T01:21:20.169Z,1027.38
2022-10-18T01:22:20.162Z,1027.37
2022-10-18T01:23:20.331Z,1027.43
2022-10-18T01:24:20.113Z,1027.42
2022-10-18T01:25:20.073Z,1027.43
2022-10-18T01:26:20.092Z,1027.33
2022-10-18T01:27:20.033Z,1027.32
2022-10-18T01:28:20.047Z,1027.31
2022-10-18T01:29:20.005Z,1027.30
2022-10-18T01:30:20.009Z,1027.25
2022-10-18T01:31:20.009Z,1027.22
2022-10-18T01:32:19.985Z,1027.19
2022-10-18T01:33:20.203Z,1027.17
2022-10-18T01:34:19.967Z,1027.14
2022-10-18T01:35:19.941Z,1027.14
2022-10-18T01:36:19.934Z,1027.12
2022-10-18T01:37:19.976Z,1027.11
2022-10-18T01:38:19.910Z,1027.08
2022-10-18T01:39:19.887Z,1027.08
2022-10-18T01:40:19.878Z,1027.11
2022-10-18T01:41:19.865Z,1027.15
2022-10-18T01:42:19.912Z,1027.10
2022-10-18T01:43:19.843Z,1027.07
2022-10-18T01:44:19.821Z,1027.07
2022-10-18T01:45:19.793Z,1027.10
2022-10-18T01:46:19.806Z,1027.05
2022-10-18T01:47:19.781Z,1027.05
2022-10-18T01:48:19.791Z,1027.01
2022-10-18T01:49:19.737Z,1027.03
2022-10-18T01:50:19.773Z,1027.01
2022-10-18T01:51:19.731Z,1027.00
2022-10-18T01:52:19.721Z,1027.01
2022-10-18T01:53:19.722Z,1027.01
2022-10-18T01:54:19.728Z,1026.98
2022-10-18T01:55:19.665Z,1027.01
2022-10-18T01:56:19.661Z,1026.96
2022-10-18T01:57:19.644Z,1026.93
2022-10-18T01:58:19.648Z,1026.88
2022-10-18T01:59:19.646Z,1026.93
2022-10-18T02:00:19.618Z,1026.90
2022-10-18T02:01:19.596Z,1026.92
2022-10-18T02:02:19.584Z,1026.88
2022-10-18T02:03:19.564Z,1026.93
2022-10-18T02:04:19.599Z,1026.86
2022-10-18T02:05:20.108Z,1026.88
2022-10-18T02:06:19.530Z,1026.89
2022-10-18T02:07:19.508Z,1026.91
2022-10-18T02:08:23.245Z,1026.83
2022-10-18T02:09:19.738Z,1026.82
2022-10-18T02:10:19.541Z,1026.84
2022-10-18T02:11:19.462Z,1026.94
2022-10-18T02:12:19.464Z,1026.88
2022-10-18T02:13:19.456Z,1026.90
2022-10-18T02:14:19.443Z,1026.89
2022-10-18T02:15:19.437Z,1026.85
2022-10-18T02:16:19.393Z,1026.85
2022-10-18T02:17:19.398Z,1026.85
2022-10-18T02:18:19.380Z,1026.87
2022-10-18T02:19:19.384Z,1026.83
2022-10-18T02:20:19.341Z,1026.88
2022-10-18T02:21:19.354Z,1026.90
2022-10-18T02:22:19.321Z,1026.86
2022-10-18T02:23:19.301Z,1026.84
2022-10-18T02:24:19.310Z,1026.80
2022-10-18T02:25:19.311Z,1026.83
2022-10-18T02:26:19.319Z,1026.81
2022-10-18T02:27:19.237Z,1026.78
2022-10-18T02:28:19.332Z,1026.79
2022-10-18T02:29:19.249Z,1026.76
2022-10-18T02:30:19.248Z,1026.71
2022-10-18T02:31:19.214Z,1026.78
2022-10-18T02:32:19.217Z,1026.79
2022-10-18T02:33:19.226Z,1026.84
2022-10-18T02:34:19.204Z,1026.81
2022-10-18T02:35:19.140Z,1026.84
2022-10-18T02:36:19.129Z,1026.88
2022-10-18T02:37:19.205Z,1026.80
2022-10-18T02:38:19.123Z,1026.80
2022-10-18T02:39:19.080Z,1026.81
2022-10-18T02:40:19.087Z,1026.81
2022-10-18T02:41:19.049Z,1026.84
2022-10-18T02:42:19.075Z,1026.80
2022-10-18T02:43:19.053Z,1026.81
2022-10-18T02:44:19.022Z,1026.72
2022-10-18T02:45:18.997Z,1026.80
2022-10-18T02:46:19.030Z,1026.79
2022-10-18T02:47:18.974Z,1026.77
2022-10-18T02:48:19.015Z,1026.82
2022-10-18T02:49:18.952Z,1026.82
2022-10-18T02:50:18.964Z,1026.81
2022-10-18T02:51:18.920Z,1026.80
2022-10-18T02:52:18.929Z,1026.85
2022-10-18T02:53:18.901Z,1026.86
2022-10-18T02:54:18.915Z,1026.83
2022-10-18T02:55:18.934Z,1026.86
2022-10-18T02:56:18.865Z,1026.88
2022-10-18T02:57:18.832Z,1026.87
2022-10-18T02:58:18.841Z,1026.87
2022-10-18T02:59:18.846Z,1026.85
2022-10-18T03:00:18.830Z,1026.88
2022-10-18T03:01:18.862Z,1026.84
2022-10-18T03:02:18.806Z,1026.80
2022-10-18T03:03:18.770Z,1026.81
2022-10-18T03:04:18.827Z,1026.84
2022-10-18T03:05:18.778Z,1026.81
2022-10-18T03:06:18.743Z,1026.85
2022-10-18T03:07:18.711Z,1026.86
2022-10-18T03:08:18.721Z,1026.86
2022-10-18T03:09:18.690Z,1026.83
2022-10-18T03:10:18.706Z,1026.85
2022-10-18T03:11:18.706Z,1026.86
2022-10-18T03:12:18.681Z,1026.87
2022-10-18T03:13:18.659Z,1026.86
2022-10-18T03:14:18.637Z,1026.88
2022-10-18T03:15:18.620Z,1026.91
2022-10-18T03:16:18.636Z,1026.91
2022-10-18T03:17:18.587Z,1026.91
2022-10-18T03:18:18.615Z,1026.92
2022-10-18T03:19:18.577Z,1026.90
2022-10-18T03:20:18.571Z,1026.95
2022-10-18T03:21:18.544Z,1026.95
2022-10-18T03:22:18.599Z,1027.00
2022-10-18T03:23:18.492Z,1026.99
2022-10-18T03:24:18.527Z,1026.97
2022-10-18T03:25:18.628Z,1026.98
2022-10-18T03:26:18.520Z,1027.06
2022-10-18T03:27:18.498Z,1027.06
2022-10-18T03:28:18.451Z,1027.07
2022-10-18T03:29:18.426Z,1027.05
2022-10-18T03:30:18.417Z,1027.02
2022-10-18T03:31:18.421Z,1027.10
2022-10-18T03:32:18.402Z,1027.11
2022-10-18T03:33:18.409Z,1027.10
2022-10-18T03:34:18.359Z,1027.13
2022-10-18T03:35:18.364Z,1027.11
2022-10-18T03:36:18.337Z,1027.11
2022-10-18T03:37:18.377Z,1027.10
2022-10-18T03:38:18.334Z,1027.07
2022-10-18T03:39:18.568Z,1027.07
2022-10-18T03:40:18.358Z,1027.09
2022-10-18T03:41:18.300Z,1027.10
2022-10-18T03:42:18.274Z,1027.12
2022-10-18T03:43:18.268Z,1027.10
2022-10-18T03:44:18.262Z,1027.12
2022-10-18T03:45:18.249Z,1027.11
2022-10-18T03:46:18.218Z,1027.15
2022-10-18T03:47:18.188Z,1027.14
2022-10-18T03:48:18.174Z,1027.20
2022-10-18T03:49:18.209Z,1027.22
2022-10-18T03:50:18.157Z,1027.23
2022-10-18T03:51:18.161Z,1027.24
2022-10-18T03:52:18.110Z,1027.26
2022-10-18T03:53:18.113Z,1027.34
2022-10-18T03:54:18.118Z,1027.29
2022-10-18T03:55:18.097Z,1027.27
2022-10-18T03:56:24.548Z,1027.31
2022-10-18T03:57:18.048Z,1027.34
2022-10-18T03:58:18.016Z,1027.32
2022-10-18T03:59:18.066Z,1027.33
2022-10-18T04:00:18.084Z,1027.37
2022-10-18T04:01:18.117Z,1027.37
2022-10-18T04:02:17.977Z,1027.39
2022-10-18T04:03:17.994Z,1027.44
2022-10-18T04:04:17.945Z,1027.44
2022-10-18T04:05:17.987Z,1027.43
2022-10-18T04:06:17.968Z,1027.45
2022-10-18T04:07:17.951Z,1027.44
2022-10-18T04:08:17.933Z,1027.50
2022-10-18T04:09:17.896Z,1027.47
2022-10-18T04:10:17.882Z,1027.50
2022-10-18T04:11:17.883Z,1027.46
2022-10-18T04:12:17.865Z,1027.43
2022-10-18T04:13:17.865Z,1027.41
2022-10-18T04:14:17.822Z,1027.47
2022-10-18T04:15:17.837Z,1027.51
2022-10-18T04:16:17.797Z,1027.46
2022-10-18T04:17:17.791Z,1027.49
2022-10-18T04:18:17.837Z,1027.46
2022-10-18T04:19:17.762Z,1027.48
2022-10-18T04:20:17.739Z,1027.48
2022-10-18T04:21:17.757Z,1027.40
2022-10-18T04:22:17.732Z,1027.45
2022-10-18T04:23:17.746Z,1027.41
2022-10-18T04:24:17.733Z,1027.43
2022-10-18T04:25:17.684Z,1027.39
2022-10-18T04:26:17.672Z,1027.36
2022-10-18T04:27:17.664Z,1027.40
2022-10-18T04:28:17.627Z,1027.33
2022-10-18T04:29:17.624Z,1027.39
2022-10-18T04:30:17.648Z,1027.42
2022-10-18T04:31:17.592Z,1027.57
2022-10-18T04:32:17.567Z,1027.59
2022-10-18T04:33:17.585Z,1027.60
2022-10-18T04:34:17.551Z,1027.66
2022-10-18T04:35:17.584Z,1027.65
2022-10-18T04:36:17.575Z,1027.64
2022-10-18T04:37:17.526Z,1027.55
2022-10-18T04:38:17.493Z,1027.40
2022-10-18T04:39:17.500Z,1027.42
2022-10-18T04:40:17.490Z,1027.48
2022-10-18T04:41:17.473Z,1027.46
2022-10-18T04:42:17.538Z,1027.43
2022-10-18T04:43:17.437Z,1027.30
2022-10-18T04:44:17.433Z,1027.18
2022-10-18T04:45:17.411Z,1027.15
2022-10-18T04:46:17.396Z,1027.11
2022-10-18T04:47:17.382Z,1027.16
2022-10-18T04:48:17.442Z,1027.11
2022-10-18T04:49:17.359Z,1027.09
2022-10-18T04:50:17.358Z,1027.06
2022-10-18T04:51:17.383Z,1026.93
2022-10-18T04:52:17.305Z,1026.90
2022-10-18T04:53:17.310Z,1026.91
2022-10-18T04:54:17.310Z,1026.93
2022-10-18T04:55:17.296Z,1027.00
2022-10-18T04:56:17.274Z,1027.03
2022-10-18T04:57:17.253Z,1027.05
2022-10-18T04:58:17.230Z,1027.08
2022-10-18T04:59:17.236Z,1027.11
2022-10-18T05:00:17.234Z,1027.12
2022-10-18T05:01:17.240Z,1027.10
2022-10-18T05:02:17.189Z,1027.15
2022-10-18T05:03:17.177Z,1027.17
2022-10-18T05:04:17.146Z,1027.15
2022-10-18T05:05:17.146Z,1027.16
2022-10-18T05:06:17.234Z,1027.14
2022-10-18T05:07:17.121Z,1027.15
2022-10-18T05:08:17.149Z,1027.13
2022-10-18T05:09:17.120Z,1027.22
2022-10-18T05:10:17.090Z,1027.23
2022-10-18T05:11:17.134Z,1027.23
2022-10-18T05:12:17.095Z,1027.25
2022-10-18T05:13:17.041Z,1027.27
2022-10-18T05:14:17.030Z,1027.27
2022-10-18T05:15:17.012Z,1027.28
2022-10-18T05:16:16.990Z,1027.28
2022-10-18T05:17:16.990Z,1027.31
2022-10-18T05:18:17.000Z,1027.33
2022-10-18T05:19:16.970Z,1027.36
2022-10-18T05:20:16.992Z,1027.36
2022-10-18T05:21:16.939Z,1027.36
2022-10-18T05:22:16.918Z,1027.38
2022-10-18T05:23:16.905Z,1027.40
2022-10-18T05:24:16.916Z,1027.38
2022-10-18T05:25:16.888Z,1027.36
2022-10-18T05:26:16.849Z,1027.37
2022-10-18T05:27:16.880Z,1027.38
2022-10-18T05:28:38.014Z,1027.37
2022-10-18T05:29:16.885Z,1027.40
2022-10-18T05:30:16.809Z,1027.41
2022-10-18T05:31:16.742Z,1027.42
2022-10-18T05:32:16.735Z,1027.47
2022-10-18T05:33:16.727Z,1027.56
2022-10-18T05:34:16.694Z,1027.53
2022-10-18T05:35:16.701Z,1027.58
2022-10-18T05:36:16.716Z,1027.63
2022-10-18T05:37:16.686Z,1027.67
2022-10-18T05:38:16.648Z,1027.69
2022-10-18T05:39:16.660Z,1027.65
2022-10-18T05:40:16.617Z,1027.70
2022-10-18T05:41:16.613Z,1027.71
2022-10-18T05:42:16.641Z,1027.70
2022-10-18T05:43:16.587Z,1027.71
2022-10-18T05:44:16.588Z,1027.75
2022-10-18T05:45:16.573Z,1027.69
2022-10-18T05:46:16.528Z,1027.72
2022-10-18T05:47:16.557Z,1027.71
2022-10-18T05:48:16.550Z,1027.73
2022-10-18T05:49:16.515Z,1027.71
2022-10-18T05:50:16.482Z,1027.76
2022-10-18T05:51:16.522Z,1027.79
2022-10-18T05:52:16.454Z,1027.75
2022-10-18T05:53:35.624Z,1027.79
2022-10-18T05:54:16.508Z,1027.80
2022-10-18T05:55:16.471Z,1027.78
2022-10-18T05:56:16.439Z,1027.73
2022-10-18T05:57:16.412Z,1027.76
2022-10-18T05:58:16.368Z,1027.80
2022-10-18T05:59:16.433Z,1027.76
2022-10-18T06:00:16.421Z,1027.80
2022-10-18T06:01:16.376Z,1027.82
2022-10-18T06:02:16.445Z,1027.84
2022-10-18T06:03:16.323Z,1027.80
2022-10-18T06:04:16.292Z,1027.81
2022-10-18T06:05:16.311Z,1027.82
2022-10-18T06:06:16.320Z,1027.79
2022-10-18T06:07:16.293Z,1027.77
2022-10-18T06:08:16.245Z,1027.76
2022-10-18T06:09:16.259Z,1027.78
2022-10-18T06:10:16.214Z,1027.80
2022-10-18T06:11:16.220Z,1027.83
2022-10-18T06:12:16.287Z,1027.87
2022-10-18T06:13:16.205Z,1027.86
2022-10-18T06:14:16.176Z,1027.89
2022-10-18T06:15:16.165Z,1027.90
2022-10-18T06:16:16.183Z,1027.90
2022-10-18T06:17:16.138Z,1027.92
2022-10-18T06:18:16.154Z,1027.92
2022-10-18T06:19:16.125Z,1027.85
2022-10-18T06:20:16.100Z,1027.88
2022-10-18T06:21:16.088Z,1027.85
2022-10-18T06:22:16.066Z,1027.90
2022-10-18T06:23:16.098Z,1027.92
2022-10-18T06:24:16.097Z,1027.97
2022-10-18T06:25:16.045Z,1027.92
2022-10-18T06:26:16.015Z,1027.95
2022-10-18T06:27:16.040Z,1027.97
2022-10-18T06:28:15.989Z,1027.98
2022-10-18T06:29:16.024Z,1028.00
2022-10-18T06:30:15.989Z,1028.03
2022-10-18T06:31:15.950Z,1028.08
2022-10-18T06:32:15.939Z,1028.06
2022-10-18T06:33:15.922Z,1028.05
2022-10-18T06:34:15.895Z,1028.10
2022-10-18T06:35:15.933Z,1028.08
2022-10-18T06:36:15.942Z,1028.12
2022-10-18T06:37:15.907Z,1028.15
2022-10-18T06:38:15.835Z,1028.13
2022-10-18T06:39:15.889Z,1028.20
2022-10-18T06:40:15.962Z,1028.19
2022-10-18T06:41:15.819Z,1028.24
2022-10-18T06:42:17.961Z,1028.25
2022-10-18T06:43:21.125Z,1028.24
2022-10-18T06:44:15.782Z,1028.30
2022-10-18T06:45:15.763Z,1028.26
2022-10-18T06:46:15.735Z,1028.27
2022-10-18T06:47:15.794Z,1028.29
2022-10-18T06:48:15.777Z,1028.24
2022-10-18T06:49:18.315Z,1028.23
2022-10-18T06:50:15.694Z,1028.23
2022-10-18T06:51:15.686Z,1028.20
2022-10-18T06:52:15.663Z,1028.26
2022-10-18T06:53:15.685Z,1028.25
2022-10-18T06:54:18.477Z,1028.26
2022-10-18T06:55:15.626Z,1028.26
2022-10-18T06:56:15.616Z,1028.31
2022-10-18T06:57:15.641Z,1028.32
2022-10-18T06:58:15.633Z,1028.31
2022-10-18T06:59:15.578Z,1028.35
2022-10-18T07:00:15.556Z,1028.36
2022-10-18T07:01:15.569Z,1028.36
2022-10-18T07:02:15.559Z,1028.35
2022-10-18T07:03:15.546Z,1028.39
2022-10-18T07:04:15.531Z,1028.41
2022-10-18T07:05:15.502Z,1028.41
2022-10-18T07:06:15.487Z,1028.39
2022-10-18T07:07:15.508Z,1028.43
2022-10-18T07:08:15.457Z,1028.47
2022-10-18T07:09:15.499Z,1028.45
2022-10-18T07:10:15.438Z,1028.45
2022-10-18T07:11:15.455Z,1028.48
2022-10-18T07:12:15.402Z,1028.48
2022-10-18T07:13:31.320Z,1028.49
2022-10-18T07:14:16.471Z,1028.46
2022-10-18T07:15:15.428Z,1028.50
2022-10-18T07:16:18.200Z,1028.50
2022-10-18T07:17:15.335Z,1028.50
2022-10-18T07:18:15.314Z,1028.50
2022-10-18T07:19:15.302Z,1028.47
2022-10-18T07:20:15.349Z,1028.46
2022-10-18T07:21:15.327Z,1028.50
2022-10-18T07:22:15.260Z,1028.51
2022-10-18T07:23:15.258Z,1028.52
2022-10-18T07:24:15.265Z,1028.51
2022-10-18T07:25:15.258Z,1028.51
2022-10-18T07:26:15.291Z,1028.52
2022-10-18T07:27:15.207Z,1028.52
2022-10-18T07:28:15.170Z,1028.51
2022-10-18T07:29:15.205Z,1028.51
2022-10-18T07:30:15.162Z,1028.49
2022-10-18T07:31:15.197Z,1028.52
2022-10-18T07:32:15.160Z,1028.52
2022-10-18T07:33:15.156Z,1028.57
2022-10-18T07:34:15.102Z,1028.62
2022-10-18T07:35:15.125Z,1028.64
2022-10-18T07:36:15.063Z,1028.66
2022-10-18T07:37:15.095Z,1028.68
2022-10-18T07:38:15.047Z,1028.69
2022-10-18T07:39:15.077Z,1028.65
2022-10-18T07:40:15.029Z,1028.67
2022-10-18T07:41:15.017Z,1028.68
2022-10-18T07:42:15.055Z,1028.65
2022-10-18T07:43:14.989Z,1028.61
2022-10-18T07:44:14.965Z,1028.62
2022-10-18T07:45:14.984Z,1028.62
2022-10-18T07:46:14.962Z,1028.62
2022-10-18T07:47:14.985Z,1028.63
2022-10-18T07:48:14.940Z,1028.58
2022-10-18T07:49:14.948Z,1028.63
2022-10-18T07:50:14.897Z,1028.63
2022-10-18T07:51:14.900Z,1028.63
2022-10-18T07:52:14.892Z,1028.65
2022-10-18T07:53:14.918Z,1028.65
2022-10-18T07:54:14.870Z,1028.71
2022-10-18T07:55:14.812Z,1028.67
2022-10-18T07:56:14.841Z,1028.70
2022-10-18T07:57:14.819Z,1028.74
2022-10-18T07:58:14.802Z,1028.73
2022-10-18T07:59:14.800Z,1028.74
2022-10-18T08:00:14.785Z,1028.74
2022-10-18T08:01:14.787Z,1028.80
2022-10-18T08:02:14.741Z,1028.82
2022-10-18T08:03:14.732Z,1028.84
2022-10-18T08:04:16.578Z,1028.91
2022-10-18T08:05:14.696Z,1028.92
2022-10-18T08:06:14.684Z,1028.90
2022-10-18T08:07:14.650Z,1028.93
2022-10-18T08:08:14.675Z,1028.96
2022-10-18T08:09:14.643Z,1028.93
2022-10-18T08:10:14.672Z,1028.98
2022-10-18T08:11:14.630Z,1029.00
2022-10-18T08:12:14.597Z,1029.03
2022-10-18T08:13:14.572Z,1029.03
2022-10-18T08:14:14.583Z,1029.04
2022-10-18T08:15:14.763Z,1029.05
2022-10-18T08:16:14.551Z,1029.03
2022-10-18T08:17:14.526Z,1029.06
2022-10-18T08:18:14.530Z,1029.05
2022-10-18T08:19:14.497Z,1029.10
2022-10-18T08:20:29.739Z,1029.05
2022-10-18T08:21:14.510Z,1029.09
2022-10-18T08:22:14.506Z,1029.14
2022-10-18T08:23:14.439Z,1029.08
2022-10-18T08:24:14.473Z,1029.09
2022-10-18T08:25:14.454Z,1029.09
2022-10-18T08:26:14.464Z,1029.08
2022-10-18T08:27:14.385Z,1029.15
2022-10-18T08:28:14.391Z,1029.15
2022-10-18T08:29:24.808Z,1029.12
2022-10-18T08:30:14.365Z,1029.15
2022-10-18T08:31:14.350Z,1029.16
2022-10-18T08:32:14.372Z,1029.16
2022-10-18T08:33:14.315Z,1029.21
2022-10-18T08:34:19.380Z,1029.23
2022-10-18T08:35:14.287Z,1029.20
2022-10-18T08:36:14.342Z,1029.21
2022-10-18T08:37:14.291Z,1029.17
2022-10-18T08:38:18.043Z,1029.22
2022-10-18T08:39:14.254Z,1029.17
2022-10-18T08:40:14.233Z,1029.20
2022-10-18T08:41:14.202Z,1029.22
2022-10-18T08:42:14.228Z,1029.24
2022-10-18T08:43:18.109Z,1029.31
2022-10-18T08:44:14.185Z,1029.29
2022-10-18T08:45:30.061Z,1029.28
2022-10-18T08:46:14.166Z,1029.32
2022-10-18T08:47:14.117Z,1029.29
2022-10-18T08:48:14.175Z,1029.28
2022-10-18T08:49:14.110Z,1029.24
2022-10-18T08:50:14.131Z,1029.17
2022-10-18T08:51:14.082Z,1029.16
2022-10-18T08:52:14.079Z,1029.19
2022-10-18T08:53:14.049Z,1029.16
2022-10-18T08:54:14.130Z,1029.18
2022-10-18T08:55:14.034Z,1029.17
2022-10-18T08:56:14.033Z,1029.13
2022-10-18T08:57:13.994Z,1029.11
2022-10-18T08:58:14.006Z,1029.15
2022-10-18T08:59:13.964Z,1029.16
2022-10-18T09:00:14.024Z,1029.14
2022-10-18T09:01:13.953Z,1029.13
2022-10-18T09:02:13.934Z,1029.13
2022-10-18T09:03:14.136Z,1029.15
2022-10-18T09:04:13.933Z,1029.19
2022-10-18T09:05:13.889Z,1029.20
2022-10-18T09:06:13.932Z,1029.25
2022-10-18T09:07:13.855Z,1029.21
2022-10-18T09:08:13.904Z,1029.23
2022-10-18T09:09:13.834Z,1029.25
2022-10-18T09:10:13.865Z,1029.25
2022-10-18T09:11:13.810Z,1029.26
2022-10-18T09:12:13.859Z,1029.26
2022-10-18T09:13:13.778Z,1029.30
2022-10-18T09:14:13.778Z,1029.31
2022-10-18T09:15:13.813Z,1029.32
2022-10-18T09:16:13.789Z,1029.30
2022-10-18T09:17:16.043Z,1029.32
2022-10-18T09:18:13.801Z,1029.31
2022-10-18T09:19:13.697Z,1029.28
2022-10-18T09:20:13.752Z,1029.34
2022-10-18T09:21:13.679Z,1029.33
2022-10-18T09:22:13.705Z,1029.32
2022-10-18T09:23:13.653Z,1029.32
2022-10-18T09:24:13.721Z,1029.29
2022-10-18T09:25:13.635Z,1029.30
2022-10-18T09:26:13.630Z,1029.35
2022-10-18T09:27:13.610Z,1029.34
2022-10-18T09:28:13.615Z,1029.35
2022-10-18T09:29:13.654Z,1029.38
2022-10-18T09:30:13.634Z,1029.37
2022-10-18T09:31:13.562Z,1029.38
2022-10-18T09:32:13.557Z,1029.38
2022-10-18T09:33:13.514Z,1029.38
2022-10-18T09:34:13.509Z,1029.40
2022-10-18T09:35:13.491Z,1029.41
2022-10-18T09:36:13.535Z,1029.39
2022-10-18T09:37:13.505Z,1029.40
2022-10-18T09:38:13.506Z,1029.41
2022-10-18T09:39:13.454Z,1029.36
2022-10-18T09:40:16.565Z,1029.38
2022-10-18T09:41:13.426Z,1029.40
2022-10-18T09:42:13.461Z,1029.41
2022-10-18T09:43:13.414Z,1029.43
2022-10-18T09:44:13.440Z,1029.43
2022-10-18T09:45:13.388Z,1029.43
2022-10-18T09:46:13.377Z,1029.41
2022-10-18T09:47:16.513Z,1029.43
2022-10-18T09:48:13.404Z,1029.38
2022-10-18T09:49:15.678Z,1029.36
2022-10-18T09:50:13.347Z,1029.35
2022-10-18T09:51:13.282Z,1029.36
2022-10-18T09:52:13.287Z,1029.41
2022-10-18T09:53:13.248Z,1029.40
2022-10-18T09:54:13.323Z,1029.41
2022-10-18T09:55:13.221Z,1029.41
2022-10-18T09:56:13.235Z,1029.40
2022-10-18T09:57:13.206Z,1029.43
2022-10-18T09:58:13.213Z,1029.41
2022-10-18T09:59:13.170Z,1029.43
2022-10-18T10:00:13.244Z,1029.43
2022-10-18T10:01:13.158Z,1029.47
2022-10-18T10:02:13.220Z,1029.46
2022-10-18T10:03:13.112Z,1029.39
2022-10-18T10:04:13.141Z,1029.43
2022-10-18T10:05:13.128Z,1029.37
2022-10-18T10:06:13.128Z,1029.40
2022-10-18T10:07:13.108Z,1029.37
2022-10-18T10:08:13.048Z,1029.37
2022-10-18T10:09:13.069Z,1029.40
2022-10-18T10:10:13.031Z,1029.45
2022-10-18T10:11:13.017Z,1029.48
2022-10-18T10:12:13.053Z,1029.48
2022-10-18T10:13:12.995Z,1029.47
2022-10-18T10:14:13.077Z,1029.50
2022-10-18T10:15:12.989Z,1029.50
2022-10-18T10:16:12.961Z,1029.47
2022-10-18T10:17:12.930Z,1029.55
2022-10-18T10:18:12.999Z,1029.55
2022-10-18T10:19:12.975Z,1029.57
2022-10-18T10:20:12.916Z,1029.57
2022-10-18T10:21:12.888Z,1029.58
2022-10-18T10:22:12.880Z,1029.55
2022-10-18T10:23:12.977Z,1029.52
2022-10-18T10:24:12.929Z,1029.55
2022-10-18T10:25:12.885Z,1029.57
2022-10-18T10:26:12.825Z,1029.58
2022-10-18T10:27:12.828Z,1029.58
2022-10-18T10:28:12.810Z,1029.55
2022-10-18T10:29:22.363Z,1029.55
2022-10-18T10:30:12.813Z,1029.55
2022-10-18T10:31:12.744Z,1029.60
2022-10-18T10:32:12.751Z,1029.59
2022-10-18T10:33:12.735Z,1029.57
2022-10-18T10:34:12.713Z,1029.59
2022-10-18T10:35:21.777Z,1029.53
2022-10-18T10:36:12.788Z,1029.52
2022-10-18T10:37:12.655Z,1029.52
2022-10-18T10:38:12.669Z,1029.55
2022-10-18T10:39:12.639Z,1029.55
2022-10-18T10:40:22.943Z,1029.52
2022-10-18T10:41:12.637Z,1029.46
2022-10-18T10:42:12.662Z,1029.53
2022-10-18T10:43:25.044Z,1029.45
2022-10-18T10:44:12.590Z,1029.50
2022-10-18T10:45:12.582Z,1029.46
2022-10-18T10:46:12.572Z,1029.43
2022-10-18T10:47:12.577Z,1029.40
2022-10-18T10:48:12.569Z,1029.41
2022-10-18T10:49:38.594Z,1029.43
2022-10-18T10:50:12.602Z,1029.42
2022-10-18T10:51:12.505Z,1029.45
2022-10-18T10:52:26.212Z,1029.49
2022-10-18T10:53:12.452Z,1029.50
2022-10-18T10:54:12.542Z,1029.48
2022-10-18T10:55:33.814Z,1029.58
2022-10-18T10:56:15.840Z,1029.59
2022-10-18T10:57:12.404Z,1029.60
2022-10-18T10:58:12.451Z,1029.64
2022-10-18T10:59:12.406Z,1029.61
2022-10-18T11:00:12.490Z,1029.63
2022-10-18T11:01:12.339Z,1029.64
2022-10-18T11:02:12.348Z,1029.63
2022-10-18T11:03:27.807Z,1029.61
2022-10-18T11:04:12.410Z,1029.66
2022-10-18T11:05:12.326Z,1029.65
2022-10-18T11:06:12.338Z,1029.62
2022-10-18T11:07:12.285Z,1029.65
2022-10-18T11:08:12.263Z,1029.61
2022-10-18T11:09:12.243Z,1029.60
2022-10-18T11:10:12.353Z,1029.55
2022-10-18T11:11:12.223Z,1029.59
2022-10-18T11:12:12.269Z,1029.57
2022-10-18T11:13:12.211Z,1029.57
2022-10-18T11:14:27.492Z,1029.57
2022-10-18T11:15:12.186Z,1029.59
2022-10-18T11:16:12.164Z,1029.57
2022-10-18T11:17:12.148Z,1029.56
2022-10-18T11:18:12.213Z,1029.59
2022-10-18T11:19:12.114Z,1029.57
2022-10-18T11:20:12.248Z,1029.54
2022-10-18T11:21:12.103Z,1029.53
2022-10-18T11:22:12.103Z,1029.53
2022-10-18T11:23:12.064Z,1029.50
2022-10-18T11:24:12.098Z,1029.48
2022-10-18T11:25:12.050Z,1029.50
2022-10-18T11:26:12.058Z,1029.48
2022-10-18T11:27:11.990Z,1029.47
2022-10-18T11:28:12.003Z,1029.51
2022-10-18T11:29:11.971Z,1029.50
2022-10-18T11:30:12.146Z,1029.52
2022-10-18T11:31:11.947Z,1029.55
2022-10-18T11:32:11.969Z,1029.53
2022-10-18T11:33:11.942Z,1029.51
2022-10-18T11:34:11.968Z,1029.54
2022-10-18T11:35:11.898Z,1029.53
2022-10-18T11:36:11.997Z,1029.50
2022-10-18T11:37:39.461Z,1029.49
2022-10-18T11:38:11.883Z,1029.50
2022-10-18T11:39:11.842Z,1029.48
2022-10-18T11:40:11.965Z,1029.52
2022-10-18T11:41:11.866Z,1029.55
2022-10-18T11:42:11.857Z,1029.55
2022-10-18T11:43:11.781Z,1029.57
2022-10-18T11:44:11.810Z,1029.55
2022-10-18T11:45:11.774Z,1029.52
2022-10-18T11:46:11.780Z,1029.54
2022-10-18T11:47:11.728Z,1029.57
2022-10-18T11:48:11.845Z,1029.54
2022-10-18T11:49:11.703Z,1029.52
2022-10-18T11:50:11.845Z,1029.53
2022-10-18T11:51:11.671Z,1029.48
2022-10-18T11:52:11.688Z,1029.49
2022-10-18T11:53:11.654Z,1029.43
2022-10-18T11:54:11.737Z,1029.46
2022-10-18T11:55:11.801Z,1029.45
2022-10-18T11:56:11.624Z,1029.40
2022-10-18T11:57:11.657Z,1029.43
2022-10-18T11:58:11.655Z,1029.45
2022-10-18T11:59:11.622Z,1029.44
2022-10-18T12:00:11.693Z,1029.52
2022-10-18T12:01:11.545Z,1029.48
2022-10-18T12:02:11.650Z,1029.49
2022-10-18T12:03:11.638Z,1029.52
2022-10-18T12:04:11.539Z,1029.50
2022-10-18T12:05:22.974Z,1029.50